Time;durP1;ratioP1;P1;durP2;ratioP2;P2;SDS_P1;SDS_P2;PMS_P1;PMS_P2;Temp;Humidity;BMP_temperature;BMP_pressure;BME280_temperature;BME280_humidity;BME280_pressure;Samples;Min_cycle;Max_cycle;Signal;HPM_P1;HPM_P2
2023/10/22 00:01:14;;;;;;;48.20;19.00;;;;;;;12.18;83.20;100128.91;105765;1254;61200;-75
2023/10/22 00:03:43;;;;;;;47.60;18.80;;;;;;;12.18;83.28;100129.39;105932;1254;64532;-76
2023/10/22 00:06:11;;;;;;;45.10;17.50;;;;;;;12.20;83.23;100127.84;105937;1259;61183;-75
2023/10/22 00:08:39;;;;;;;43.10;18.50;;;;;;;12.20;83.21;100127.93;105929;1254;62480;-76
2023/10/22 00:11:06;;;;;;;47.20;18.40;;;;;;;12.21;83.31;100127.15;105787;1254;61359;-76
2023/10/22 00:13:34;;;;;;;41.80;18.20;;;;;;;12.22;83.39;100123.58;105906;1254;61329;-76
2023/10/22 00:16:01;;;;;;;46.00;19.10;;;;;;;12.23;83.29;100121.02;105820;1259;65669;-76
2023/10/22 00:18:29;;;;;;;39.40;18.50;;;;;;;12.22;83.21;100126.00;105899;1252;61362;-76
2023/10/22 00:20:56;;;;;;;42.30;17.60;;;;;;;12.22;83.32;100128.29;105816;1259;63709;-77
2023/10/22 00:23:24;;;;;;;43.20;17.30;;;;;;;12.25;83.35;100133.72;106091;1254;61292;-76
2023/10/22 00:25:51;;;;;;;42.80;17.50;;;;;;;12.26;83.13;100129.38;105945;1259;61330;-76
2023/10/22 00:28:18;;;;;;;42.70;17.50;;;;;;;12.26;83.14;100123.17;105922;1258;65770;-76
2023/10/22 00:30:47;;;;;;;44.20;17.70;;;;;;;12.27;83.11;100119.45;105812;1259;61163;-76
2023/10/22 00:33:14;;;;;;;40.30;16.80;;;;;;;12.28;83.07;100122.34;105840;1259;62520;-76
2023/10/22 00:35:42;;;;;;;40.40;16.90;;;;;;;12.29;83.09;100125.90;105711;1260;61640;-76
2023/10/22 00:38:10;;;;;;;40.60;16.40;;;;;;;12.29;83.00;100125.17;105612;1253;61452;-76
2023/10/22 00:40:38;;;;;;;41.50;16.50;;;;;;;12.29;82.88;100125.94;105677;1260;65714;-76
2023/10/22 00:43:05;;;;;;;43.30;16.00;;;;;;;12.29;82.85;100124.15;105612;1254;61382;-76
2023/10/22 00:45:35;;;;;;;39.10;15.80;;;;;;;12.30;82.85;100120.05;105568;1255;62622;-76
2023/10/22 00:48:02;;;;;;;46.10;15.50;;;;;;;12.29;82.77;100120.95;105831;1255;61298;-77
2023/10/22 00:50:30;;;;;;;38.10;16.10;;;;;;;12.29;82.72;100119.19;105751;1255;61168;-76
2023/10/22 00:52:58;;;;;;;41.50;16.20;;;;;;;12.29;82.66;100115.31;105745;1259;65762;-75
2023/10/22 00:55:25;;;;;;;40.50;15.90;;;;;;;12.31;82.67;100113.73;105620;1259;61246;-74
2023/10/22 00:57:53;;;;;;;39.40;15.40;;;;;;;12.32;82.59;100113.33;105779;1259;63805;-76
2023/10/22 01:00:20;;;;;;;37.60;15.80;;;;;;;12.31;82.47;100112.82;105813;1254;61359;-76
2023/10/22 01:02:48;;;;;;;44.50;15.20;;;;;;;12.31;82.46;100117.59;105973;1254;61256;-77
2023/10/22 01:05:16;;;;;;;37.80;15.10;;;;;;;12.30;82.40;100113.96;106085;1254;65704;-76
2023/10/22 01:07:44;;;;;;;43.60;15.20;;;;;;;12.29;82.32;100114.06;105891;1258;61381;-76
2023/10/22 01:10:11;;;;;;;37.10;14.30;;;;;;;12.29;82.25;100108.98;105709;1255;62573;-78
2023/10/22 01:12:39;;;;;;;44.60;15.40;;;;;;;12.28;82.15;100107.85;105920;1259;61238;-76
2023/10/22 01:15:06;;;;;;;36.30;14.80;;;;;;;12.27;82.14;100109.33;105783;1253;61333;-75
2023/10/22 01:17:34;;;;;;;40.30;15.00;;;;;;;12.26;82.06;100114.37;105815;1253;64570;-75
2023/10/22 01:20:02;;;;;;;37.10;14.70;;;;;;;12.25;81.98;100114.98;105880;1255;61262;-76
2023/10/22 01:22:30;;;;;;;30.30;13.70;;;;;;;12.25;81.96;100117.10;105832;1259;63782;-76
2023/10/22 01:24:57;;;;;;;41.10;14.80;;;;;;;12.24;81.93;100117.36;105917;1259;61622;-76
2023/10/22 01:27:25;;;;;;;35.70;14.40;;;;;;;12.23;81.92;100118.66;105858;1258;61257;-76
2023/10/22 01:29:53;;;;;;;47.30;15.70;;;;;;;12.22;81.87;100114.02;105951;1254;65716;-76
2023/10/22 01:32:21;;;;;;;41.80;14.90;;;;;;;12.22;81.80;100116.86;105897;1259;61179;-76
2023/10/22 01:34:49;;;;;;;38.20;14.60;;;;;;;12.22;81.78;100116.83;105910;1259;63712;-76
2023/10/22 01:37:18;;;;;;;36.80;15.40;;;;;;;12.23;81.67;100115.69;105832;1254;61272;-78
2023/10/22 01:39:46;;;;;;;40.70;15.20;;;;;;;12.24;81.70;100120.03;105899;1254;61168;-75
2023/10/22 01:42:14;;;;;;;39.40;15.40;;;;;;;12.25;81.66;100119.59;105995;1254;65847;-75
2023/10/22 01:44:42;;;;;;;33.60;14.40;;;;;;;12.25;81.67;100120.28;105882;1253;61279;-78
2023/10/22 01:47:10;;;;;;;32.90;14.40;;;;;;;12.26;81.58;100124.47;105826;1254;62449;-77
2023/10/22 01:49:38;;;;;;;32.60;14.00;;;;;;;12.27;81.55;100127.55;106010;1259;61259;-75
2023/10/22 01:52:06;;;;;;;33.80;14.10;;;;;;;12.27;81.51;100130.31;105827;1259;61300;-75
2023/10/22 01:54:34;;;;;;;31.50;14.40;;;;;;;12.28;81.43;100129.95;105861;1259;65850;-76
2023/10/22 01:57:02;;;;;;;31.30;14.60;;;;;;;12.28;81.34;100128.86;105898;1260;61281;-76
2023/10/22 01:59:30;;;;;;;29.10;14.20;;;;;;;12.28;81.42;100130.79;105837;1254;63738;-74
2023/10/22 02:01:58;;;;;;;31.40;13.80;;;;;;;12.30;81.33;100130.61;105788;1259;61286;-77
2023/10/22 02:04:26;;;;;;;25.60;12.90;;;;;;;12.32;81.18;100132.55;105814;1254;61292;-75
2023/10/22 02:06:54;;;;;;;34.60;14.90;;;;;;;12.31;81.19;100131.33;105582;1257;66330;-75
2023/10/22 02:09:21;;;;;;;26.10;13.40;;;;;;;12.31;81.14;100129.30;105796;1254;61233;-75
2023/10/22 02:11:50;;;;;;;25.90;13.30;;;;;;;12.33;81.05;100130.35;105925;1257;72428;-75
2023/10/22 02:14:17;;;;;;;24.90;12.90;;;;;;;12.35;80.87;100134.40;105744;1260;61359;-76
2023/10/22 02:16:45;;;;;;;28.20;13.70;;;;;;;12.36;80.93;100131.66;105869;1266;61179;-76
2023/10/22 02:19:13;;;;;;;23.70;14.00;;;;;;;12.35;80.83;100129.94;105728;1257;64486;-75
2023/10/22 02:21:40;;;;;;;24.80;13.50;;;;;;;12.35;80.69;100131.73;105740;1254;61265;-75
2023/10/22 02:24:08;;;;;;;24.20;12.50;;;;;;;12.36;80.62;100137.70;105789;1257;63781;-76
2023/10/22 02:26:36;;;;;;;22.20;12.10;;;;;;;12.36;80.54;100136.98;105816;1257;61320;-76
2023/10/22 02:29:04;;;;;;;24.20;13.40;;;;;;;12.36;80.48;100135.58;105972;1254;61241;-75
2023/10/22 02:31:31;;;;;;;19.30;11.70;;;;;;;12.37;80.41;100138.15;105802;1253;64533;-75
2023/10/22 02:34:05;;;;;;;24.90;13.00;;;;;;;12.37;80.08;100140.27;105783;1257;61319;-76
2023/10/22 02:36:33;;;;;;;19.70;12.30;;;;;;;12.36;80.05;100137.48;105950;1259;63765;-76
2023/10/22 02:39:03;;;;;;;22.60;13.00;;;;;;;12.35;79.81;100137.56;105847;1260;61349;-76
2023/10/22 02:41:31;;;;;;;26.20;12.90;;;;;;;12.34;79.67;100134.84;105791;1257;61735;-75
2023/10/22 02:43:58;;;;;;;29.30;13.20;;;;;;;12.33;79.54;100137.21;105965;1258;65705;-75
2023/10/22 02:46:26;;;;;;;20.70;12.20;;;;;;;12.30;79.33;100135.88;105946;1261;61270;-75
2023/10/22 02:48:54;;;;;;;25.80;13.30;;;;;;;12.29;79.26;100137.25;106009;1255;62523;-75
2023/10/22 02:51:22;;;;;;;22.90;12.50;;;;;;;12.28;79.15;100140.85;105822;1258;61394;-75
2023/10/22 02:53:49;;;;;;;21.10;12.00;;;;;;;12.28;79.12;100143.11;106034;1255;61298;-75
2023/10/22 02:56:17;;;;;;;24.10;12.40;;;;;;;12.28;79.02;100138.06;106058;1257;65661;-76
2023/10/22 02:58:45;;;;;;;21.00;12.30;;;;;;;12.27;78.97;100140.09;105892;1257;61355;-75
2023/10/22 03:01:12;;;;;;;22.10;12.50;;;;;;;12.26;79.02;100144.00;105722;1263;62494;-75
2023/10/22 03:03:40;;;;;;;23.50;12.40;;;;;;;12.27;78.90;100144.67;106000;1254;61381;-76
2023/10/22 03:06:12;;;;;;;29.10;12.90;;;;;;;12.27;78.93;100142.49;105935;1260;61329;-76
2023/10/22 03:08:40;;;;;;;27.50;12.50;;;;;;;12.29;78.92;100145.39;105886;1254;64481;-75
2023/10/22 03:11:16;;;;;;;23.40;12.90;;;;;;;12.30;78.89;100145.08;105874;1260;62007;-75
2023/10/22 03:13:44;;;;;;;20.40;12.30;;;;;;;12.31;78.78;100148.84;105968;1259;64221;-75
2023/10/22 03:16:14;;;;;;;25.80;12.80;;;;;;;12.31;78.81;100153.58;105883;1254;61300;-74
2023/10/22 03:18:47;;;;;;;26.60;13.10;;;;;;;12.34;78.85;100153.02;105901;1254;61215;-76
2023/10/22 03:21:19;;;;;;;25.70;13.00;;;;;;;12.35;78.86;100146.19;105807;1261;64503;-75
2023/10/22 03:23:47;;;;;;;27.80;13.60;;;;;;;12.37;78.79;100141.49;105903;1254;61346;-75
2023/10/22 03:26:19;;;;;;;30.30;12.50;;;;;;;12.37;78.90;100142.14;105848;1255;63803;-76
2023/10/22 03:28:46;;;;;;;29.70;13.40;;;;;;;12.38;78.98;100142.98;105797;1255;61327;-75
2023/10/22 03:31:14;;;;;;;33.00;14.50;;;;;;;12.39;78.93;100141.83;105873;1257;61157;-74
2023/10/22 03:33:42;;;;;;;30.70;14.10;;;;;;;12.39;78.90;100147.45;105984;1254;64444;-76
2023/10/22 03:36:11;;;;;;;31.50;13.50;;;;;;;12.37;78.89;100145.12;105847;1254;61305;-76
2023/10/22 03:38:40;;;;;;;28.10;14.20;;;;;;;12.37;78.79;100144.14;105813;1256;63776;-76
2023/10/22 03:41:07;;;;;;;30.80;14.50;;;;;;;12.35;78.90;100141.27;105806;1260;61359;-76
2023/10/22 03:43:35;;;;;;;32.50;15.70;;;;;;;12.33;78.81;100140.72;105608;1256;61254;-76
2023/10/22 03:46:02;;;;;;;30.80;15.30;;;;;;;12.29;78.73;100138.64;105559;1261;65796;-76
2023/10/22 03:48:30;;;;;;;28.80;15.60;;;;;;;12.25;78.65;100140.58;105820;1254;61378;-76
2023/10/22 03:50:59;;;;;;;28.70;15.20;;;;;;;12.23;78.90;100139.83;105637;1258;63744;-76
2023/10/22 03:53:26;;;;;;;28.00;15.50;;;;;;;12.22;78.92;100137.69;105889;1254;61287;-76
2023/10/22 03:55:54;;;;;;;34.70;15.90;;;;;;;12.21;78.92;100139.21;105869;1253;61413;-75
2023/10/22 03:58:21;;;;;;;30.30;15.60;;;;;;;12.20;78.89;100136.13;105791;1254;64510;-75
2023/10/22 04:00:50;;;;;;;31.80;15.60;;;;;;;12.20;78.96;100135.43;105782;1255;61355;-75
2023/10/22 04:03:17;;;;;;;28.50;15.40;;;;;;;12.21;78.99;100137.60;105833;1255;63705;-76
2023/10/22 04:05:46;;;;;;;29.40;16.20;;;;;;;12.23;78.99;100138.85;105947;1260;61349;-76
2023/10/22 04:08:13;;;;;;;35.90;16.50;;;;;;;12.22;79.07;100141.55;105939;1258;61171;-76
2023/10/22 04:10:47;;;;;;;26.80;14.60;;;;;;;12.22;79.06;100137.35;105783;1253;65864;-75
2023/10/22 04:13:14;;;;;;;;;;;;;;;12.20;79.05;100132.59;105829;1255;61289;-74
2023/10/22 04:15:42;;;;;;;34.20;17.20;;;;;;;12.18;79.07;100129.80;106016;1254;63798;-75
2023/10/22 04:18:10;;;;;;;35.40;17.40;;;;;;;12.15;79.14;100133.02;105858;1255;61287;-74
2023/10/22 04:20:37;;;;;;;32.90;17.20;;;;;;;12.15;79.21;100127.89;106147;1254;61308;-75
2023/10/22 04:23:05;;;;;;;36.90;16.80;;;;;;;12.15;79.18;100130.86;105827;1260;65806;-76
2023/10/22 04:25:40;;;;;;;37.00;17.70;;;;;;;12.15;79.28;100132.46;105704;1254;61350;-76
2023/10/22 04:28:07;;;;;;;34.20;17.40;;;;;;;12.15;79.39;100130.36;105827;1257;63709;-76
2023/10/22 04:30:48;;;;;;;33.60;17.60;;;;;;;12.15;79.36;100123.17;105940;1254;61337;-76
2023/10/22 04:33:16;;;;;;;38.40;18.10;;;;;;;12.15;79.32;100125.06;106084;1252;59940;-76
2023/10/22 04:35:47;;;;;;;40.60;19.00;;;;;;;12.15;79.33;100128.47;105868;1252;65770;-74
2023/10/22 04:38:14;;;;;;;37.40;18.90;;;;;;;12.13;79.43;100128.27;105736;1255;61419;-76
2023/10/22 04:40:42;;;;;;;42.50;18.70;;;;;;;12.12;79.49;100133.10;105850;1254;63834;-77
2023/10/22 04:43:10;;;;;;;36.30;18.80;;;;;;;12.13;79.61;100132.29;105835;1257;61442;-75
2023/10/22 04:45:37;;;;;;;39.30;19.10;;;;;;;12.15;79.56;100135.30;106021;1256;61333;-75
2023/10/22 04:48:05;;;;;;;45.50;20.40;;;;;;;12.15;79.50;100133.55;105974;1254;65778;-76
2023/10/22 04:50:32;;;;;;;37.70;20.90;;;;;;;12.15;79.53;100131.12;106032;1254;61372;-76
2023/10/22 04:53:00;;;;;;;39.80;19.60;;;;;;;12.15;79.66;100128.59;105871;1257;62543;-75
2023/10/22 04:55:28;;;;;;;37.20;19.40;;;;;;;12.16;79.68;100130.27;105847;1257;61365;-75
2023/10/22 04:57:56;;;;;;;37.90;19.90;;;;;;;12.17;79.66;100131.67;105879;1254;61126;-75
2023/10/22 05:00:24;;;;;;;36.50;19.20;;;;;;;12.15;79.72;100131.98;105980;1251;65840;-75
2023/10/22 05:02:52;;;;;;;39.50;20.30;;;;;;;12.14;79.72;100130.51;105851;1257;61167;-76
2023/10/22 05:05:21;;;;;;;44.70;19.90;;;;;;;12.14;79.82;100128.70;105902;1256;62489;-76
2023/10/22 05:07:49;;;;;;;43.00;21.40;;;;;;;12.15;79.83;100131.62;105941;1255;61340;-76
2023/10/22 05:10:16;;;;;;;42.00;19.10;;;;;;;12.16;79.84;100130.99;105865;1255;61340;-76
2023/10/22 05:12:44;;;;;;;40.80;19.40;;;;;;;12.17;79.91;100127.21;105935;1257;65718;-76
2023/10/22 05:15:12;;;;;;;46.60;20.00;;;;;;;12.16;79.91;100122.14;105912;1255;61368;-76
2023/10/22 05:17:40;;;;;;;47.70;19.90;;;;;;;12.16;79.88;100117.27;105890;1254;63493;-75
2023/10/22 05:20:08;;;;;;;39.00;19.80;;;;;;;12.15;79.89;100107.56;105833;1258;61310;-76
2023/10/22 05:22:35;;;;;;;45.00;20.90;;;;;;;12.16;79.94;100101.00;106002;1254;61164;-75
2023/10/22 05:25:03;;;;;;;45.40;20.90;;;;;;;12.16;79.99;100102.38;105823;1254;64587;-75
2023/10/22 05:27:31;;;;;;;37.70;19.10;;;;;;;12.17;80.00;100104.09;105941;1254;61743;-76
2023/10/22 05:29:58;;;;;;;36.60;17.20;;;;;;;12.18;79.95;100108.60;105801;1257;63760;-76
2023/10/22 05:32:26;;;;;;;38.40;19.90;;;;;;;12.17;80.02;100112.52;105855;1258;61353;-75
2023/10/22 05:34:53;;;;;;;47.00;21.20;;;;;;;12.16;80.06;100119.34;105696;1254;61403;-75
2023/10/22 05:37:22;;;;;;;40.40;20.70;;;;;;;12.15;80.06;100119.58;105579;1254;65764;-74
2023/10/22 05:39:50;;;;;;;47.00;20.60;;;;;;;12.15;80.10;100118.38;106029;1254;61187;-75
2023/10/22 05:42:18;;;;;;;46.30;21.80;;;;;;;12.13;79.99;100116.94;105804;1254;63759;-75
2023/10/22 05:44:45;;;;;;;42.20;20.90;;;;;;;12.15;80.13;100120.17;105877;1260;61282;-75
2023/10/22 05:47:12;;;;;;;43.90;21.70;;;;;;;12.17;80.20;100121.91;106189;1254;59349;-76
2023/10/22 05:49:40;;;;;;;43.20;22.00;;;;;;;12.20;80.19;100117.77;106080;1253;64457;-76
2023/10/22 05:52:07;;;;;;;43.20;21.90;;;;;;;12.22;80.31;100117.39;105937;1253;61349;-75
2023/10/22 05:54:36;;;;;;;45.30;23.40;;;;;;;12.23;80.21;100126.11;105826;1254;63888;-76
2023/10/22 05:57:04;;;;;;;44.50;22.30;;;;;;;12.24;80.19;100136.59;105989;1254;61347;-76
2023/10/22 05:59:32;;;;;;;41.90;21.40;;;;;;;12.26;80.15;100133.99;106001;1254;61356;-75
2023/10/22 06:02:02;;;;;;;41.50;22.40;;;;;;;12.26;80.16;100130.23;106020;1254;65821;-75
2023/10/22 06:04:29;;;;;;;42.80;22.50;;;;;;;12.26;80.29;100128.33;105990;1259;62033;-76
2023/10/22 06:06:57;;;;;;;41.50;23.10;;;;;;;12.29;80.32;100130.67;106266;1257;63856;-75
2023/10/22 06:09:24;;;;;;;44.30;23.00;;;;;;;12.35;80.32;100132.29;106063;1256;61252;-74
2023/10/22 06:11:52;;;;;;;44.80;22.90;;;;;;;12.40;80.31;100128.67;106111;1260;61113;-75
2023/10/22 06:14:19;;;;;;;44.20;23.30;;;;;;;12.44;80.30;100122.77;106312;1260;67852;-76
2023/10/22 06:16:47;;;;;;;47.80;24.20;;;;;;;12.49;80.30;100121.61;106145;1254;61180;-76
2023/10/22 06:19:14;;;;;;;44.70;24.00;;;;;;;12.54;80.22;100119.96;106549;1260;63866;-75
2023/10/22 06:21:42;;;;;;;40.30;23.60;;;;;;;12.57;80.01;100117.58;106158;1267;61378;-75
2023/10/22 06:24:10;;;;;;;41.40;23.00;;;;;;;12.59;79.94;100127.80;106065;1256;61212;-74
2023/10/22 06:26:38;;;;;;;40.40;23.20;;;;;;;12.61;79.91;100130.91;106301;1255;65674;-75
2023/10/22 06:29:05;;;;;;;41.20;23.30;;;;;;;12.61;79.63;100128.79;106160;1259;61058;-75
2023/10/22 06:31:33;;;;;;;42.20;23.70;;;;;;;12.63;79.62;100127.25;106422;1254;63716;-75
2023/10/22 06:34:02;;;;;;;38.30;22.60;;;;;;;12.64;79.61;100131.77;107052;1254;61346;-75
2023/10/22 06:36:30;;;;;;;36.80;23.40;;;;;;;12.64;79.49;100132.44;106495;1254;61187;-76
2023/10/22 06:38:58;;;;;;;41.50;22.40;;;;;;;12.67;79.39;100132.33;106475;1258;65820;-74
2023/10/22 06:41:25;;;;;;;40.20;22.50;;;;;;;12.72;79.31;100132.43;106509;1253;61246;-76
2023/10/22 06:43:53;;;;;;;37.90;22.20;;;;;;;12.75;79.21;100133.39;106660;1254;63873;-75
2023/10/22 06:46:21;;;;;;;37.10;22.70;;;;;;;12.77;79.12;100134.59;106840;1255;61279;-75
2023/10/22 06:48:48;;;;;;;47.00;22.80;;;;;;;12.81;79.04;100136.69;106794;1252;59946;-76
2023/10/22 06:51:16;;;;;;;42.10;22.70;;;;;;;12.85;78.98;100134.74;107357;1253;64450;-75
2023/10/22 06:53:49;;;;;;;37.40;21.70;;;;;;;12.89;78.95;100127.66;106554;1254;61317;-75
2023/10/22 06:56:16;;;;;;;39.00;21.60;;;;;;;12.92;78.78;100119.01;106538;1260;66022;-75
2023/10/22 06:58:46;;;;;;;39.20;22.40;;;;;;;12.97;78.62;100122.16;106724;1254;61209;-76
2023/10/22 07:01:14;;;;;;;38.30;22.40;;;;;;;13.01;78.54;100119.63;106881;1253;59334;-74
2023/10/22 07:03:45;;;;;;;40.20;23.20;;;;;;;13.06;78.49;100110.88;106986;1254;65690;-75
2023/10/22 07:06:13;;;;;;;39.40;22.20;;;;;;;13.11;78.29;100107.52;106862;1254;61368;-75
2023/10/22 07:08:41;;;;;;;42.00;21.80;;;;;;;13.18;78.07;100110.80;106623;1254;63861;-76
2023/10/22 07:11:09;;;;;;;43.00;22.30;;;;;;;13.23;77.95;100108.58;106896;1254;61439;-75
2023/10/22 07:13:36;;;;;;;36.40;22.10;;;;;;;13.28;77.74;100106.52;106774;1253;61354;-75
2023/10/22 07:16:05;;;;;;;35.90;21.30;;;;;;;13.33;77.50;100108.15;106795;1254;65754;-75
2023/10/22 07:18:32;;;;;;;40.40;23.80;;;;;;;13.36;77.18;100108.19;106850;1256;61234;-75
2023/10/22 07:21:00;;;;;;;50.90;26.60;;;;;;;13.35;76.87;100105.82;106615;1254;63720;-75
2023/10/22 07:23:31;;;;;;;45.00;25.00;;;;;;;13.36;76.80;100107.15;107288;1254;61353;-74
2023/10/22 07:25:59;;;;;;;41.10;22.80;;;;;;;13.41;76.67;100107.41;107115;1254;61236;-75
2023/10/22 07:28:27;;;;;;;44.80;22.80;;;;;;;13.47;76.60;100108.55;106290;1260;65752;-76
2023/10/22 07:30:55;;;;;;;39.80;23.30;;;;;;;13.55;76.50;100116.34;106610;1254;61170;-76
2023/10/22 07:33:24;;;;;;;36.80;22.40;;;;;;;13.61;76.47;100117.45;106066;1254;63921;-75
2023/10/22 07:35:57;;;;;;;38.80;21.70;;;;;;;13.70;76.24;100115.50;106030;1254;61345;-76
2023/10/22 07:38:29;;;;;;;52.20;26.10;;;;;;;13.78;75.94;100111.43;106147;1254;61273;-75
2023/10/22 07:41:23;;;;;;;44.70;24.80;;;;;;;13.82;75.59;100108.70;105976;1253;64621;-75
2023/10/22 07:43:50;;;;;;;51.90;26.80;;;;;;;13.85;75.41;100103.13;105934;1254;61854;-75
2023/10/22 07:46:18;;;;;;;54.70;26.60;;;;;;;13.91;75.40;100104.35;105813;1257;62448;-76
2023/10/22 07:48:45;;;;;;;50.30;26.10;;;;;;;13.96;75.15;100102.77;105896;1254;61785;-76
2023/10/22 07:51:18;;;;;;;46.20;25.60;;;;;;;14.01;74.97;100100.84;105904;1253;61176;-76
2023/10/22 07:53:46;;;;;;;52.90;28.10;;;;;;;14.08;74.90;100100.84;105993;1260;64412;-78
2023/10/22 07:56:20;;;;;;;45.30;25.60;;;;;;;14.15;74.64;100101.20;106012;1259;61308;-76
2023/10/22 07:58:48;;;;;;;48.60;26.10;;;;;;;14.23;74.54;100099.72;105894;1254;63860;-77
2023/10/22 08:01:16;;;;;;;52.00;27.10;;;;;;;14.33;74.44;100090.74;105957;1254;61365;-76
2023/10/22 08:03:43;;;;;;;44.60;25.70;;;;;;;14.45;74.31;100080.71;105987;1254;61253;-75
2023/10/22 08:06:11;;;;;;;40.60;22.90;;;;;;;14.59;74.16;100078.77;105918;1254;65724;-76
2023/10/22 08:08:39;;;;;;;47.70;25.30;;;;;;;14.75;74.06;100077.02;105922;1257;61278;-76
2023/10/22 08:11:10;;;;;;;47.10;25.50;;;;;;;14.91;73.73;100075.33;106016;1254;62500;-76
2023/10/22 08:13:37;;;;;;;57.40;28.20;;;;;;;15.06;73.21;100074.66;105933;1254;62225;-77
2023/10/22 08:16:05;;;;;;;46.30;25.30;;;;;;;15.19;72.68;100067.33;105724;1254;61295;-75
2023/10/22 08:18:33;;;;;;;41.30;22.50;;;;;;;15.29;72.29;100060.96;105998;1253;65060;-76
2023/10/22 08:21:06;;;;;;;32.10;20.00;;;;;;;15.39;71.89;100063.80;105906;1254;61286;-75
2023/10/22 08:23:34;;;;;;;23.50;13.80;;;;;;;15.48;71.23;100065.06;106047;1257;63714;-76
2023/10/22 08:26:01;;;;;;;23.40;13.90;;;;;;;15.53;70.76;100054.04;105979;1254;61381;-75
2023/10/22 08:28:29;;;;;;;116.40;14.70;;;;;;;15.59;70.37;100045.72;106554;1257;61241;-75
2023/10/22 08:30:59;;;;;;;20.20;11.90;;;;;;;15.60;69.42;100039.77;106531;1259;66210;-77
2023/10/22 08:33:27;;;;;;;17.60;11.40;;;;;;;15.56;69.04;100038.05;106107;1259;59765;-77
2023/10/22 08:36:03;;;;;;;22.30;12.50;;;;;;;15.59;69.00;100028.38;105983;1255;62547;-78
2023/10/22 08:38:31;;;;;;;20.80;11.10;;;;;;;15.64;68.67;100023.09;106259;1253;61343;-76
2023/10/22 08:41:00;;;;;;;15.70;10.40;;;;;;;15.68;68.54;100019.08;106434;1259;61160;-75
2023/10/22 08:43:31;;;;;;;15.60;10.30;;;;;;;15.74;68.50;100014.50;105897;1254;64533;-75
2023/10/22 08:45:58;;;;;;;18.40;9.70;;;;;;;15.82;68.35;100015.98;106038;1254;61339;-75
2023/10/22 08:48:27;;;;;;;16.70;10.20;;;;;;;15.86;67.89;100016.24;105993;1254;63685;-75
2023/10/22 08:50:54;;;;;;;13.90;10.00;;;;;;;15.69;67.91;100017.84;105971;1254;61323;-75
2023/10/22 08:53:22;;;;;;;15.90;10.20;;;;;;;15.59;68.21;100014.70;105551;1254;61217;-76
2023/10/22 08:55:50;;;;;;;17.80;9.90;;;;;;;15.62;68.19;100007.48;105439;1254;160680;-76
2023/10/22 08:58:21;;;;;;;18.30;10.00;;;;;;;15.69;68.12;100000.97;105761;1259;61273;-75
2023/10/22 09:00:49;;;;;;;18.30;10.00;;;;;;;15.77;68.04;99999.31;105698;1257;63721;-75
2023/10/22 09:03:18;;;;;;;15.50;10.90;;;;;;;15.82;67.81;99996.96;105842;1259;61343;-75
2023/10/22 09:05:46;;;;;;;18.90;10.10;;;;;;;15.84;67.25;99995.48;106081;1254;61339;-75
2023/10/22 09:08:14;;;;;;;16.10;10.20;;;;;;;15.84;66.98;99996.58;105943;1258;65813;-75
2023/10/22 09:10:42;;;;;;;15.60;9.40;;;;;;;15.87;66.98;99998.60;105847;1259;61305;-77
2023/10/22 09:13:09;;;;;;;16.10;9.60;;;;;;;15.96;67.21;99997.74;105931;1254;64211;-77
2023/10/22 09:15:38;;;;;;;15.80;9.70;;;;;;;16.08;67.00;100003.21;105920;1254;61375;-75
2023/10/22 09:18:06;;;;;;;14.60;9.80;;;;;;;16.14;66.33;100005.55;105935;1254;61346;-76
2023/10/22 09:20:34;;;;;;;14.80;9.80;;;;;;;16.13;65.82;100001.13;106302;1254;64441;-76
2023/10/22 09:23:18;;;;;;;15.20;9.80;;;;;;;16.12;65.71;99992.16;105863;1259;61232;-76
2023/10/22 09:25:47;;;;;;;15.50;9.90;;;;;;;16.13;65.74;99984.57;105951;1259;64852;-76
2023/10/22 09:28:18;;;;;;;14.60;9.60;;;;;;;16.19;65.56;99984.79;105890;1259;61371;-77
2023/10/22 09:30:48;;;;;;;14.40;8.90;;;;;;;16.27;65.50;99986.79;106047;1256;61100;-77
2023/10/22 09:33:17;;;;;;;17.30;9.40;;;;;;;16.38;65.30;99987.84;105862;1252;65751;-75
2023/10/22 09:35:59;;;;;;;13.30;9.40;;;;;;;16.47;64.76;100003.19;105918;1254;61326;-76
2023/10/22 09:38:42;;;;;;;15.60;9.30;;;;;;;16.50;64.43;100014.64;105906;1255;63817;-77
2023/10/22 09:41:30;;;;;;;18.50;9.00;;;;;;;16.51;64.36;100026.41;105745;1254;61381;-75
2023/10/22 09:44:01;;;;;;;16.50;9.30;;;;;;;16.58;64.38;100032.17;105705;1254;61263;-75
2023/10/22 09:46:33;;;;;;;15.10;9.40;;;;;;;16.68;64.24;100019.23;105800;1257;64507;-76
2023/10/22 09:49:06;;;;;;;16.80;9.50;;;;;;;16.76;64.05;100006.23;105747;1258;61335;-75
2023/10/22 09:51:35;;;;;;;13.00;8.90;;;;;;;16.85;63.94;99992.61;106044;1257;63807;-76
2023/10/22 09:54:08;;;;;;;15.40;9.40;;;;;;;16.97;63.95;99985.39;105908;1254;61237;-76
2023/10/22 09:56:43;;;;;;;12.00;6.90;;;;;;;17.10;63.67;99975.56;105831;1254;61354;-75
2023/10/22 09:59:11;;;;;;;15.20;8.90;;;;;;;17.23;63.74;99963.02;106064;1254;64514;-75
2023/10/22 10:01:39;;;;;;;15.90;9.80;;;;;;;17.38;63.63;99959.58;106227;1259;61279;-75
2023/10/22 10:04:07;;;;;;;15.40;9.90;;;;;;;17.45;62.98;99960.52;106072;1254;62962;-74
2023/10/22 10:06:35;;;;;;;17.00;9.90;;;;;;;17.49;62.56;99967.23;105968;1253;61295;-73
2023/10/22 10:09:03;;;;;;;12.80;9.30;;;;;;;17.55;62.42;99955.09;105994;1258;61423;-74
2023/10/22 10:11:31;;;;;;;18.10;10.30;;;;;;;17.62;62.24;99943.57;105892;1254;65719;-75
2023/10/22 10:14:13;;;;;;;14.80;10.40;;;;;;;17.69;61.89;99945.64;105818;1256;61343;-75
2023/10/22 10:16:42;;;;;;;12.90;9.40;;;;;;;17.71;61.56;99948.38;105697;1254;62676;-75
2023/10/22 10:19:18;;;;;;;14.40;10.30;;;;;;;17.72;61.69;99949.57;105700;1258;61368;-75
2023/10/22 10:21:47;;;;;;;17.00;9.80;;;;;;;17.77;61.93;99955.88;105806;1257;61451;-75
2023/10/22 10:24:15;;;;;;;17.40;10.50;;;;;;;17.88;62.01;99955.70;105904;1254;64719;-75
2023/10/22 10:26:44;;;;;;;18.00;10.00;;;;;;;17.97;61.70;99947.47;106089;1253;61247;-75
2023/10/22 10:29:21;;;;;;;15.30;10.90;;;;;;;18.04;61.16;99935.82;106051;1254;62684;-75
2023/10/22 10:31:53;;;;;;;18.50;10.50;;;;;;;18.07;61.18;99931.96;105879;1259;61266;-75
2023/10/22 10:34:22;;;;;;;17.00;10.40;;;;;;;18.18;61.44;99935.46;106172;1252;61374;-74
2023/10/22 10:36:49;;;;;;;15.80;10.10;;;;;;;18.34;61.44;99939.45;105843;1254;65768;-75
2023/10/22 10:39:42;;;;;;;15.30;10.60;;;;;;;18.48;61.03;99940.41;105921;1257;61336;-74
2023/10/22 10:42:10;;;;;;;19.00;11.30;;;;;;;18.55;60.34;99938.13;105881;1259;63879;-75
2023/10/22 10:44:57;;;;;;;17.50;11.20;;;;;;;18.58;60.23;99931.54;105916;1254;61233;-75
2023/10/22 10:47:25;;;;;;;18.00;10.80;;;;;;;18.67;60.15;99915.71;106052;1254;61164;-76
2023/10/22 10:50:02;;;;;;;16.50;11.20;;;;;;;18.75;59.93;99899.73;105932;1254;64646;-75
2023/10/22 10:52:43;;;;;;;16.90;11.20;;;;;;;18.75;59.45;99880.94;106027;1258;61279;-74
2023/10/22 10:55:14;;;;;;;18.60;11.30;;;;;;;18.74;59.33;99869.40;105913;1257;63758;-74
2023/10/22 10:57:46;;;;;;;19.10;11.40;;;;;;;18.74;59.27;99869.69;106265;1254;61359;-75
2023/10/22 11:00:38;;;;;;;18.20;11.90;;;;;;;18.78;59.33;99864.26;106177;1254;61273;-75
2023/10/22 11:03:24;;;;;;;16.70;12.20;;;;;;;18.82;59.20;99858.75;105967;1252;67757;-75
2023/10/22 11:05:52;;;;;;;18.90;12.10;;;;;;;18.83;59.07;99866.06;105834;1254;61305;-74
2023/10/22 11:08:22;;;;;;;21.20;12.50;;;;;;;18.87;58.97;99882.15;105994;1258;63772;-74
2023/10/22 11:10:49;;;;;;;21.30;13.20;;;;;;;18.89;59.01;99875.50;106020;1253;61770;-75
2023/10/22 11:13:25;;;;;;;23.70;14.00;;;;;;;18.92;58.85;99869.46;105701;1254;61131;-74